Time;durP1;ratioP1;P1;durP2;ratioP2;P2;SDS_P1;SDS_P2;PMS_P1;PMS_P2;Temp;Humidity;BMP_temperature;BMP_pressure;BME280_temperature;BME280_humidity;BME280_pressure;Samples;Min_cycle;Max_cycle;Signal;HPM_P1;HPM_P2
2022/05/15 00:02:11;;;;;;;12.30;5.72;;;;;;;18.71;42.54;101926.03;5133185;27;20561;-60
2022/05/15 00:04:38;;;;;;;15.02;5.63;;;;;;;18.67;42.72;101923.72;5133176;27;20039;-61
2022/05/15 00:07:06;;;;;;;17.45;5.95;;;;;;;18.66;42.72;101927.44;5134486;27;20050;-59
2022/05/15 00:09:32;;;;;;;18.60;5.80;;;;;;;18.65;42.80;101915.72;5134074;27;20044;-61
2022/05/15 00:11:59;;;;;;;12.57;5.45;;;;;;;18.67;42.71;101923.72;5132497;28;20039;-60
2022/05/15 00:14:26;;;;;;;20.45;6.10;;;;;;;18.67;42.90;101923.72;5132474;28;20039;-60
2022/05/15 00:16:52;;;;;;;17.98;6.07;;;;;;;18.66;42.66;101919.28;5133022;28;20088;-60
2022/05/15 00:19:19;;;;;;;19.90;5.93;;;;;;;18.65;43.10;101915.72;5131681;28;20043;-59
2022/05/15 00:21:45;;;;;;;14.25;5.18;;;;;;;18.64;42.75;101915.84;5134092;27;20039;-60
2022/05/15 00:24:12;;;;;;;20.75;5.88;;;;;;;18.62;42.97;101915.97;5133172;27;20075;-60
2022/05/15 00:26:38;;;;;;;15.02;6.10;;;;;;;18.62;43.27;101918.69;5132917;27;20035;-60
2022/05/15 00:29:06;;;;;;;23.92;6.43;;;;;;;18.62;43.32;101918.69;5098093;28;20035;-60
2022/05/15 00:31:32;;;;;;;20.45;6.22;;;;;;;18.61;43.11;101916.97;5133281;27;20426;-60
2022/05/15 00:33:59;;;;;;;17.80;6.18;;;;;;;18.62;43.10;101912.38;5128050;27;20043;-60
2022/05/15 00:36:26;;;;;;;16.98;5.97;;;;;;;18.61;43.46;101910.63;5118402;27;20304;-60
2022/05/15 00:38:53;;;;;;;14.07;5.57;;;;;;;18.58;43.06;101910.88;5137422;27;20070;-60
2022/05/15 00:41:20;;;;;;;19.25;6.28;;;;;;;18.55;43.46;101916.59;5137935;27;20039;-61
2022/05/15 00:43:48;;;;;;;18.30;5.63;;;;;;;18.52;43.57;101908.69;5136433;27;20489;-60
2022/05/15 00:46:23;;;;;;;21.35;6.47;;;;;;;18.49;43.64;101907.09;5136950;27;20481;-60
2022/05/15 00:48:51;;;;;;;17.80;6.13;;;;;;;18.49;43.34;101908.97;5127784;27;20031;-60
2022/05/15 00:51:32;;;;;;;18.10;5.35;;;;;;;18.48;43.62;101913.53;5137181;27;20043;-60
2022/05/15 00:54:19;;;;;;;16.05;5.82;;;;;;;18.47;43.49;101905.50;5136046;27;20038;-60
2022/05/15 00:56:54;;;;;;;17.92;6.10;;;;;;;18.45;43.40;101900.22;5119133;27;20042;-61
2022/05/15 00:59:24;;;;;;;19.35;5.75;;;;;;;18.39;43.52;101904.31;5136202;27;20057;-60
2022/05/15 01:01:51;;;;;;;20.15;5.88;;;;;;;18.38;43.76;101901.75;5135454;27;20227;-60
2022/05/15 01:04:18;;;;;;;16.80;5.70;;;;;;;18.35;43.58;101904.72;5116497;28;20048;-59
2022/05/15 01:06:45;;;;;;;18.25;5.75;;;;;;;18.32;43.55;101894.13;5124721;27;20070;-59
2022/05/15 01:09:13;;;;;;;17.60;5.28;;;;;;;18.31;43.74;101900.56;5137342;27;20078;-59
2022/05/15 01:11:42;;;;;;;19.02;6.32;;;;;;;18.32;43.88;101896.84;5136033;27;20058;-59
2022/05/15 01:14:12;;;;;;;15.25;5.93;;;;;;;18.31;43.86;101895.97;5114623;27;20065;-59
2022/05/15 01:16:39;;;;;;;15.48;6.20;;;;;;;18.30;43.82;101891.53;5099463;28;20130;-60
2022/05/15 01:19:06;;;;;;;12.38;4.90;;;;;;;18.31;44.14;101897.84;5116364;27;20082;-59
2022/05/15 01:21:38;;;;;;;18.88;5.93;;;;;;;18.30;44.02;101898.84;5134841;27;20138;-60
2022/05/15 01:24:06;;;;;;;17.88;5.47;;;;;;;18.29;44.25;101895.25;5136388;27;20069;-59
2022/05/15 01:26:35;;;;;;;15.15;5.43;;;;;;;18.28;43.80;101898.97;5135939;27;20047;-60
2022/05/15 01:29:04;;;;;;;18.95;5.68;;;;;;;18.27;44.23;101896.38;5119202;27;20469;-60
2022/05/15 01:31:32;;;;;;;14.50;5.25;;;;;;;18.26;43.98;101902.81;5136550;27;20027;-60
2022/05/15 01:33:59;;;;;;;18.08;5.63;;;;;;;18.25;43.97;101903.81;5108415;27;20043;-60
2022/05/15 01:36:27;;;;;;;17.63;5.47;;;;;;;18.21;44.02;101908.66;5127075;27;20374;-60
2022/05/15 01:38:55;;;;;;;19.00;5.85;;;;;;;18.17;44.53;101901.75;5113708;28;20505;-60
2022/05/15 01:41:23;;;;;;;14.77;5.70;;;;;;;18.15;44.54;101906.47;5132956;27;20519;-61
2022/05/15 01:43:54;;;;;;;15.88;6.05;;;;;;;18.13;44.69;101902.16;5135170;27;20133;-60
2022/05/15 01:46:26;;;;;;;20.20;5.82;;;;;;;18.10;44.29;101906.00;5100272;28;20040;-60
2022/05/15 01:48:55;;;;;;;15.05;5.53;;;;;;;18.06;44.46;101899.97;5097580;28;20043;-60
2022/05/15 01:51:23;;;;;;;18.50;6.05;;;;;;;18.03;44.63;101900.22;5112984;27;20050;-59
2022/05/15 01:53:50;;;;;;;14.93;5.57;;;;;;;18.01;44.67;101895.91;5134502;27;20051;-59
2022/05/15 01:56:17;;;;;;;23.08;5.97;;;;;;;18.00;44.77;101902.34;5118062;27;20100;-60
2022/05/15 01:58:44;;;;;;;17.92;6.07;;;;;;;17.97;44.54;101899.88;5120560;27;20035;-61
2022/05/15 02:01:11;;;;;;;16.17;5.80;;;;;;;17.93;44.59;101893.84;5118421;27;20486;-60
2022/05/15 02:03:38;;;;;;;17.02;5.38;;;;;;;17.90;44.87;101891.41;5108346;27;20054;-60
2022/05/15 02:06:05;;;;;;;18.65;5.70;;;;;;;17.89;44.87;101892.38;5117900;27;20134;-59
2022/05/15 02:08:33;;;;;;;26.33;6.38;;;;;;;17.88;45.10;101889.81;5111174;27;20504;-59
2022/05/15 02:11:00;;;;;;;18.13;5.40;;;;;;;17.86;45.10;101898.09;5102863;27;20039;-60
2022/05/15 02:13:28;;;;;;;14.20;5.57;;;;;;;17.82;44.69;101888.44;5118318;27;20047;-60
2022/05/15 02:15:54;;;;;;;14.02;4.93;;;;;;;17.79;45.07;101878.69;5135374;27;20054;-60
2022/05/15 02:18:21;;;;;;;17.17;6.60;;;;;;;17.79;45.34;101885.97;5130427;27;20130;-60
2022/05/15 02:20:48;;;;;;;20.73;5.55;;;;;;;17.75;45.38;101881.81;5124469;27;20083;-60
2022/05/15 02:23:15;;;;;;;16.95;6.03;;;;;;;17.74;45.06;101888.22;5123355;27;20051;-60
2022/05/15 02:25:42;;;;;;;22.40;6.30;;;;;;;17.72;45.32;101882.06;5129054;27;20035;-60
2022/05/15 02:28:09;;;;;;;20.30;5.63;;;;;;;17.70;45.60;101887.63;5117376;27;20047;-60
2022/05/15 02:30:36;;;;;;;17.83;6.53;;;;;;;17.67;45.23;101885.16;5135818;27;20039;-60
2022/05/15 02:33:02;;;;;;;21.20;6.47;;;;;;;17.63;45.12;101885.53;5134641;27;20031;-59
2022/05/15 02:35:29;;;;;;;15.60;5.55;;;;;;;17.61;45.36;101884.78;5134485;27;20562;-60
2022/05/15 02:37:56;;;;;;;20.40;5.45;;;;;;;17.58;45.72;101879.63;5134842;27;20043;-60
2022/05/15 02:40:23;;;;;;;22.77;6.38;;;;;;;17.55;45.68;101888.88;5123289;27;20094;-60
2022/05/15 02:42:51;;;;;;;17.17;5.43;;;;;;;17.53;45.44;101892.72;5134874;27;20042;-60
2022/05/15 02:45:18;;;;;;;18.83;6.45;;;;;;;17.52;45.66;101896.44;5135329;27;20154;-59
2022/05/15 02:47:45;;;;;;;17.75;6.20;;;;;;;17.50;45.63;101888.41;5107003;28;20044;-60
2022/05/15 02:52:57;;;;;;;20.40;5.72;;;;;;;17.45;45.97;101894.22;5114864;28;20036;-61
2022/05/15 02:55:25;;;;;;;16.80;6.47;;;;;;;17.43;45.76;101887.19;5095980;28;20051;-59
2022/05/15 02:57:52;;;;;;;22.40;5.88;;;;;;;17.40;45.76;101891.03;5114647;28;20481;-60
2022/05/15 03:00:21;;;;;;;22.70;6.63;;;;;;;17.39;45.79;101889.31;5096220;28;20044;-59
2022/05/15 03:02:48;;;;;;;16.05;6.40;;;;;;;17.38;45.87;101884.00;5125573;27;20051;-60
2022/05/15 03:05:18;;;;;;;19.67;6.93;;;;;;;17.37;46.19;101883.16;5134672;27;20461;-59
2022/05/15 03:07:45;;;;;;;20.73;6.55;;;;;;;17.35;45.82;101876.13;5133394;27;20047;-60
2022/05/15 03:10:15;;;;;;;20.95;6.40;;;;;;;17.35;46.37;101873.41;5121945;27;20035;-59
2022/05/15 03:12:42;;;;;;;21.10;5.78;;;;;;;17.33;46.33;101878.97;5130251;27;20067;-60
2022/05/15 03:15:13;;;;;;;19.33;6.07;;;;;;;17.31;46.17;101872.78;5131127;27;20074;-60
2022/05/15 03:17:41;;;;;;;23.90;6.82;;;;;;;17.31;46.29;101875.50;5099115;27;20400;-59
2022/05/15 03:20:09;;;;;;;19.65;6.38;;;;;;;17.30;46.37;101875.63;5134727;27;20112;-60
2022/05/15 03:22:36;;;;;;;18.88;6.88;;;;;;;17.27;46.18;101865.91;5133589;27;20096;-60
2022/05/15 03:25:04;;;;;;;18.40;6.50;;;;;;;17.26;46.24;101866.03;5133002;27;20043;-60
2022/05/15 03:27:30;;;;;;;21.45;6.35;;;;;;;17.24;46.35;101868.88;5113269;27;20039;-60
2022/05/15 03:29:57;;;;;;;20.70;7.10;;;;;;;17.23;46.57;101872.56;5134028;27;20074;-60
2022/05/15 03:32:24;;;;;;;20.80;6.57;;;;;;;17.20;46.38;101872.81;5134406;27;20070;-60
2022/05/15 03:34:50;;;;;;;21.73;6.50;;;;;;;17.18;46.56;101872.09;5131236;27;20043;-60
2022/05/15 03:37:16;;;;;;;18.70;6.22;;;;;;;17.14;46.58;101867.91;5130649;27;20080;-61
2022/05/15 03:39:43;;;;;;;17.67;6.63;;;;;;;17.10;46.63;101867.28;5115718;27;20046;-60
2022/05/15 03:42:10;;;;;;;20.02;6.63;;;;;;;17.08;46.66;101866.53;5133241;27;20405;-60
2022/05/15 03:44:37;;;;;;;18.98;6.10;;;;;;;17.06;46.75;101862.22;5127589;27;20036;-59
2022/05/15 03:47:08;;;;;;;22.73;6.60;;;;;;;17.03;46.93;101865.19;5095746;28;20126;-59
2022/05/15 03:49:35;;;;;;;20.50;6.78;;;;;;;17.01;46.67;101859.00;5106136;28;20063;-59
2022/05/15 03:52:03;;;;;;;19.67;6.70;;;;;;;17.00;46.75;101851.84;5126002;27;20417;-59
2022/05/15 03:54:30;;;;;;;19.75;6.25;;;;;;;16.97;47.18;101849.41;5125405;27;20496;-59
2022/05/15 03:56:56;;;;;;;22.38;6.65;;;;;;;16.96;47.21;101856.69;5133452;27;20145;-60
2022/05/15 03:59:31;;;;;;;21.35;7.32;;;;;;;16.94;46.97;101855.06;5133014;28;20537;-59
2022/05/15 04:01:59;;;;;;;20.70;7.70;;;;;;;16.92;47.03;101855.19;5121611;27;20481;-60
2022/05/15 04:04:28;;;;;;;19.55;6.28;;;;;;;16.92;46.95;101863.34;5128057;28;20506;-60
2022/05/15 04:06:55;;;;;;;16.42;6.43;;;;;;;16.91;47.40;101853.47;5130856;27;20115;-60
2022/05/15 04:09:22;;;;;;;18.38;6.68;;;;;;;16.90;47.46;101857.19;5127499;27;20043;-60
2022/05/15 04:11:49;;;;;;;18.05;6.57;;;;;;;16.90;47.13;101854.47;5107199;27;20374;-59
2022/05/15 04:14:15;;;;;;;17.45;6.65;;;;;;;16.90;47.57;101853.59;5124231;27;20117;-60
2022/05/15 04:16:43;;;;;;;21.52;6.18;;;;;;;16.88;47.34;101853.72;5132824;27;20492;-59
2022/05/15 04:19:10;;;;;;;20.95;6.72;;;;;;;16.90;47.41;101859.03;5126387;27;20053;-60
2022/05/15 04:21:37;;;;;;;17.13;6.63;;;;;;;16.88;47.76;101861.88;5119228;27;20129;-59
2022/05/15 04:24:05;;;;;;;18.60;6.65;;;;;;;16.88;47.43;101861.88;5119571;27;20468;-59
2022/05/15 04:26:32;;;;;;;23.17;6.75;;;;;;;16.86;47.68;101866.56;5132140;27;20075;-59
2022/05/15 04:28:59;;;;;;;17.48;6.47;;;;;;;16.88;47.71;101859.16;5138105;27;20126;-60
2022/05/15 04:31:26;;;;;;;21.42;6.78;;;;;;;16.88;47.65;101861.88;5137261;27;20046;-60
2022/05/15 04:33:52;;;;;;;24.17;7.00;;;;;;;16.90;47.78;101861.75;5118854;27;20066;-59
2022/05/15 04:36:21;;;;;;;19.02;6.40;;;;;;;16.91;47.80;101868.91;5138323;27;20054;-59
2022/05/15 04:38:47;;;;;;;20.70;7.00;;;;;;;16.92;47.80;101868.78;5136308;27;20488;-58
2022/05/15 04:41:14;;;;;;;29.17;7.45;;;;;;;16.93;47.91;101864.22;5136517;27;20047;-59
2022/05/15 04:43:40;;;;;;;22.33;6.93;;;;;;;16.93;47.88;101878.63;5136034;27;20489;-59
2022/05/15 04:46:07;;;;;;;20.80;7.43;;;;;;;16.95;48.01;101882.09;5123629;27;20058;-60
2022/05/15 04:48:35;;;;;;;20.67;6.88;;;;;;;16.96;47.75;101880.25;5117132;28;20047;-59
2022/05/15 04:51:02;;;;;;;15.60;6.57;;;;;;;16.97;47.79;101879.25;5117159;28;20123;-59
2022/05/15 04:53:30;;;;;;;17.10;7.80;;;;;;;16.97;48.15;101876.53;5136426;27;20050;-59
2022/05/15 04:55:58;;;;;;;23.60;7.22;;;;;;;16.97;47.96;101871.09;5118640;27;20047;-60
2022/05/15 04:58:25;;;;;;;19.45;7.53;;;;;;;16.97;48.29;101876.53;5136697;27;20130;-59
2022/05/15 05:00:52;;;;;;;23.40;7.25;;;;;;;16.97;47.96;101873.81;5135767;27;20039;-59
2022/05/15 05:03:19;;;;;;;19.38;6.90;;;;;;;16.97;48.37;101871.97;5136510;27;20031;-60
2022/05/15 05:05:46;;;;;;;20.55;6.78;;;;;;;16.97;48.36;101871.97;5137388;27;20081;-59
2022/05/15 05:08:13;;;;;;;18.88;7.10;;;;;;;16.98;48.47;101873.69;5135945;27;20046;-59
2022/05/15 05:10:40;;;;;;;20.50;7.97;;;;;;;16.99;48.61;101869.13;5136069;27;20039;-59
2022/05/15 05:13:07;;;;;;;22.65;7.30;;;;;;;16.98;48.54;101868.28;5134761;27;20039;-59
2022/05/15 05:15:34;;;;;;;25.50;7.88;;;;;;;17.00;48.32;101877.16;5136399;27;20096;-59
2022/05/15 05:18:01;;;;;;;16.27;6.65;;;;;;;17.01;48.70;101878.88;5126130;27;20047;-59
2022/05/15 05:20:27;;;;;;;18.58;8.20;;;;;;;17.05;48.51;101871.34;5136328;27;20520;-59
2022/05/15 05:22:54;;;;;;;19.25;7.85;;;;;;;17.08;48.56;101876.50;5136993;27;20039;-59
2022/05/15 05:25:21;;;;;;;25.25;7.57;;;;;;;17.11;48.98;101877.16;5133912;27;20439;-60
2022/05/15 05:27:47;;;;;;;21.45;7.90;;;;;;;17.14;48.73;101879.63;5135860;27;20481;-59
2022/05/15 05:30:17;;;;;;;23.00;7.80;;;;;;;17.19;49.13;101881.97;5113166;28;20102;-59
2022/05/15 05:32:44;;;;;;;26.83;8.57;;;;;;;17.25;48.94;101886.88;5107763;27;20067;-59
2022/05/15 05:35:12;;;;;;;26.35;8.80;;;;;;;17.31;48.99;101885.50;5121444;27;20394;-59
2022/05/15 05:37:39;;;;;;;27.25;7.75;;;;;;;17.32;48.62;101890.81;5129940;27;20031;-59
2022/05/15 05:40:08;;;;;;;21.67;8.52;;;;;;;17.35;49.18;101896.00;5133013;27;20039;-59
2022/05/15 05:42:34;;;;;;;20.00;8.25;;;;;;;17.40;49.00;101895.59;5135321;27;20522;-59
2022/05/15 05:45:02;;;;;;;21.52;8.13;;;;;;;17.44;49.21;101887.06;5136319;27;20137;-59
2022/05/15 05:47:30;;;;;;;20.63;8.18;;;;;;;17.49;49.08;101892.13;5129112;27;20039;-59
2022/05/15 05:49:57;;;;;;;24.40;8.43;;;;;;;17.53;49.14;101893.59;5130263;27;20031;-59
2022/05/15 05:52:24;;;;;;;19.92;8.55;;;;;;;17.60;49.20;101891.22;5134319;27;20477;-58
2022/05/15 05:54:51;;;;;;;17.17;7.90;;;;;;;17.67;49.25;101889.75;5133323;27;20047;-60
2022/05/15 05:57:17;;;;;;;22.73;7.97;;;;;;;17.76;49.33;101886.25;5134730;27;20401;-60
2022/05/15 05:59:44;;;;;;;24.73;7.85;;;;;;;17.85;49.21;101885.50;5126127;27;20366;-60
2022/05/15 06:02:11;;;;;;;23.35;8.05;;;;;;;17.97;49.01;101894.44;5136064;27;20030;-59
2022/05/15 06:04:41;;;;;;;17.63;7.47;;;;;;;18.08;49.22;101891.69;5134117;27;20035;-60
2022/05/15 06:07:14;;;;;;;24.42;8.18;;;;;;;18.22;49.26;101894.06;5126360;27;20051;-60
2022/05/15 06:09:43;;;;;;;20.90;8.10;;;;;;;18.36;49.00;101890.13;5129754;27;20047;-60
2022/05/15 06:12:11;;;;;;;19.15;8.18;;;;;;;18.52;48.73;101887.78;5134649;27;20043;-59
2022/05/15 06:14:38;;;;;;;22.30;8.85;;;;;;;18.65;48.69;101879.47;5135871;27;20039;-59
2022/05/15 06:17:05;;;;;;;20.92;7.65;;;;;;;18.78;48.57;101882.81;5128355;27;20058;-60
2022/05/15 06:19:33;;;;;;;18.67;8.10;;;;;;;18.98;48.81;101881.03;5127499;27;20043;-60
2022/05/15 06:21:59;;;;;;;22.63;8.60;;;;;;;19.14;48.22;101884.09;5115080;27;20050;-60
2022/05/15 06:24:26;;;;;;;20.92;8.77;;;;;;;19.34;48.08;101885.03;5135824;27;20039;-60
2022/05/15 06:26:54;;;;;;;20.48;7.60;;;;;;;19.52;48.44;101874.28;5135627;27;20560;-59
2022/05/15 06:29:20;;;;;;;15.02;7.57;;;;;;;19.71;47.88;101868.03;5135704;27;20397;-59
2022/05/15 06:31:47;;;;;;;18.38;8.27;;;;;;;19.94;47.70;101877.63;5134479;27;20038;-60
2022/05/15 06:34:14;;;;;;;21.48;8.30;;;;;;;20.13;47.50;101874.91;5134838;27;20092;-59
2022/05/15 06:36:41;;;;;;;17.95;8.20;;;;;;;20.37;47.42;101874.41;5135706;27;20067;-60
2022/05/15 06:39:08;;;;;;;16.70;8.05;;;;;;;20.57;47.01;101877.97;5135325;27;20046;-59
2022/05/15 06:41:34;;;;;;;16.67;7.72;;;;;;;20.74;47.14;101884.53;5133715;27;20042;-59
2022/05/15 06:44:01;;;;;;;19.02;7.45;;;;;;;20.92;46.84;101880.88;5135004;27;20058;-59
2022/05/15 06:46:28;;;;;;;14.05;7.20;;;;;;;21.10;46.28;101877.31;5124458;27;20405;-59
2022/05/15 06:48:55;;;;;;;16.83;8.55;;;;;;;21.29;45.97;101871.78;5134700;27;20122;-60
2022/05/15 06:51:21;;;;;;;19.98;7.20;;;;;;;21.49;46.13;101881.56;5135499;27;20050;-60
2022/05/15 06:53:49;;;;;;;18.58;7.82;;;;;;;21.68;46.05;101871.53;5135292;27;20370;-59
2022/05/15 06:59:05;;;;;;;14.63;7.90;;;;;;;21.92;45.28;101877.22;5134790;27;20051;-59
2022/05/15 07:01:32;;;;;;;18.33;8.05;;;;;;;22.01;45.27;101875.41;5133123;27;20072;-59
2022/05/15 07:03:58;;;;;;;19.63;7.75;;;;;;;22.09;45.13;101879.09;5135047;27;20062;-59
2022/05/15 07:06:25;;;;;;;15.80;6.95;;;;;;;22.28;44.91;101880.78;5134895;27;20417;-59
2022/05/15 07:08:51;;;;;;;17.73;8.02;;;;;;;22.51;44.62;101875.66;5116865;27;20046;-58
2022/05/15 07:11:20;;;;;;;18.65;8.25;;;;;;;22.72;44.46;101876.09;5134557;27;20042;-59
2022/05/15 07:13:46;;;;;;;15.85;7.43;;;;;;;22.96;44.05;101880.00;5133800;27;20067;-59
2022/05/15 07:16:13;;;;;;;13.35;6.72;;;;;;;23.16;43.53;101877.91;5134803;27;20043;-59
2022/05/15 07:18:41;;;;;;;16.83;7.15;;;;;;;23.34;43.21;101881.38;5134483;27;20042;-60
2022/05/15 07:21:08;;;;;;;19.02;8.13;;;;;;;23.52;43.09;101876.63;5134864;27;20047;-59
2022/05/15 07:23:35;;;;;;;16.77;8.30;;;;;;;23.69;42.67;101872.03;5134685;27;20043;-60
2022/05/15 07:26:03;;;;;;;15.98;7.05;;;;;;;23.91;42.47;101873.28;5134277;27;20103;-60
2022/05/15 07:28:30;;;;;;;15.23;6.80;;;;;;;24.14;42.37;101877.06;5133292;27;20104;-59
2022/05/15 07:30:57;;;;;;;14.48;6.85;;;;;;;24.30;41.94;101877.06;5133997;27;20045;-60
2022/05/15 07:33:27;;;;;;;14.45;6.47;;;;;;;24.43;41.38;101873.78;5134615;27;20091;-59
2022/05/15 07:35:56;;;;;;;17.67;7.50;;;;;;;24.47;41.37;101872.41;5134943;27;20039;-59
2022/05/15 07:38:24;;;;;;;16.95;6.85;;;;;;;24.59;41.22;101875.66;5134355;27;20036;-59
2022/05/15 07:40:52;;;;;;;19.17;6.80;;;;;;;24.75;40.85;101872.00;5134230;27;20036;-60
2022/05/15 07:43:19;;;;;;;15.50;7.00;;;;;;;24.86;40.62;101874.38;5133482;27;20039;-61
2022/05/15 07:45:46;;;;;;;14.82;7.35;;;;;;;24.92;40.51;101882.75;5116360;27;20047;-59
2022/05/15 07:48:12;;;;;;;17.48;6.55;;;;;;;24.96;40.16;101869.53;5134426;27;20103;-59
2022/05/15 07:50:39;;;;;;;16.13;6.85;;;;;;;25.06;40.24;101877.59;5133771;27;20039;-60
2022/05/15 07:53:05;;;;;;;21.25;7.35;;;;;;;25.13;40.17;101865.69;5140995;27;20039;-60
2022/05/15 07:55:32;;;;;;;9.80;6.75;;;;;;;25.23;39.66;101874.56;5135870;27;20047;-60
2022/05/15 07:57:59;;;;;;;11.93;6.18;;;;;;;25.33;39.39;101866.13;5132929;28;20050;-60
2022/05/15 08:00:26;;;;;;;16.48;6.35;;;;;;;25.46;39.13;101868.28;5134198;28;20050;-60
2022/05/15 08:03:09;;;;;;;17.05;7.10;;;;;;;25.63;39.18;101875.38;5115922;28;20504;-60
2022/05/15 08:08:25;;;;;;;11.85;6.05;;;;;;;25.92;38.55;101867.28;5133853;28;20051;-60
2022/05/15 08:10:51;;;;;;;13.90;6.13;;;;;;;26.09;38.47;101861.66;5134042;28;20039;-60
2022/05/15 08:13:21;;;;;;;12.60;6.85;;;;;;;26.22;38.22;101861.88;5115680;28;20043;-60
2022/05/15 08:15:48;;;;;;;17.55;6.53;;;;;;;26.33;37.89;101871.59;5133810;28;20046;-60
2022/05/15 08:23:48;;;;;;;;;;;;;;;26.59;37.60;101861.00;5134279;27;20044;-60
2022/05/15 08:26:15;;;;;;;14.07;5.55;;;;;;;26.70;37.24;101860.50;5133625;27;20365;-60
2022/05/15 08:28:42;;;;;;;14.73;6.05;;;;;;;26.79;36.95;101858.53;5133758;27;20050;-60
2022/05/15 08:31:08;;;;;;;13.73;5.75;;;;;;;26.89;36.56;101857.22;5133985;28;20044;-60
2022/05/15 08:33:37;;;;;;;15.73;6.40;;;;;;;27.06;36.69;101843.25;5133548;27;20460;-60
2022/05/15 08:36:06;;;;;;;12.10;5.95;;;;;;;27.20;36.17;101836.84;5133773;27;20058;-59
2022/05/15 08:38:33;;;;;;;10.38;5.28;;;;;;;27.38;36.01;101840.00;5133158;27;20508;-61
2022/05/15 08:41:18;;;;;;;12.60;5.30;;;;;;;27.54;35.67;101836.19;5131176;28;20520;-61
2022/05/15 08:43:46;;;;;;;10.55;5.82;;;;;;;27.70;35.66;101835.94;5134068;27;20399;-60
2022/05/15 08:46:37;;;;;;;16.70;6.45;;;;;;;27.86;35.17;101837.56;5133970;27;20043;-60
2022/05/15 08:49:07;;;;;;;10.77;5.20;;;;;;;27.99;35.04;101832.16;5133501;27;20066;-59
2022/05/15 08:51:33;;;;;;;16.25;5.85;;;;;;;28.07;34.44;101828.41;5133348;27;20553;-60
2022/05/15 08:54:05;;;;;;;12.32;5.60;;;;;;;28.14;34.42;101826.56;5134095;27;20043;-60
2022/05/15 08:56:39;;;;;;;13.23;5.53;;;;;;;28.23;34.28;101827.25;5137559;27;20054;-60
2022/05/15 08:59:19;;;;;;;14.73;6.07;;;;;;;28.37;33.99;101821.69;5136222;27;20043;-59
2022/05/15 09:01:49;;;;;;;13.43;5.35;;;;;;;28.52;33.65;101815.19;5116948;28;20043;-62
2022/05/15 09:04:16;;;;;;;18.08;5.72;;;;;;;28.57;33.27;101813.50;5116672;28;20044;-59
2022/05/15 09:06:51;;;;;;;14.65;6.60;;;;;;;28.56;32.72;101805.41;5116879;28;20448;-59
2022/05/15 09:09:29;;;;;;;9.55;5.35;;;;;;;28.59;32.58;101799.47;5098499;28;20092;-60
2022/05/15 09:12:16;;;;;;;13.90;6.13;;;;;;;28.65;32.44;101804.19;5116584;28;20047;-60
2022/05/15 09:15:19;;;;;;;10.35;5.00;;;;;;;28.66;32.21;101815.03;5117472;27;20040;-61
2022/05/15 09:17:57;;;;;;;12.65;5.20;;;;;;;28.68;32.01;101810.16;5116537;28;20040;-61
2022/05/15 09:21:02;;;;;;;11.43;4.90;;;;;;;28.74;31.84;101808.50;5116514;28;20043;-59
2022/05/15 09:23:41;;;;;;;15.48;5.30;;;;;;;28.79;31.67;101808.72;5090484;27;20047;-60
2022/05/15 09:26:08;;;;;;;13.27;4.80;;;;;;;28.89;31.70;101820.28;5137195;27;20500;-61
2022/05/15 09:28:50;;;;;;;15.40;4.82;;;;;;;28.99;31.44;101818.03;5136811;27;20396;-60
2022/05/15 09:31:42;;;;;;;11.40;4.32;;;;;;;29.05;30.86;101808.91;5136933;27;20103;-61
2022/05/15 09:34:26;;;;;;;9.20;4.50;;;;;;;29.09;30.73;101806.56;5136649;27;20561;-60
2022/05/15 09:39:47;;;;;;;13.50;3.97;;;;;;;29.30;30.16;101805.56;5135002;27;20088;-59
2022/05/15 09:45:07;;;;;;;6.70;2.58;;;;;;;29.46;29.08;101807.13;5115949;28;20067;-61
2022/05/15 09:47:36;;;;;;;9.55;3.20;;;;;;;29.45;28.85;101799.88;5115828;28;20058;-59
2022/05/15 09:50:08;;;;;;;8.85;3.20;;;;;;;29.42;28.52;101795.56;5119693;27;20047;-62
2022/05/15 09:52:40;;;;;;;8.65;2.65;;;;;;;29.45;28.32;101786.88;5135196;27;20048;-61
2022/05/15 09:55:21;;;;;;;9.13;3.33;;;;;;;29.54;27.79;101793.06;5132175;27;20053;-61
2022/05/15 09:58:03;;;;;;;10.27;3.17;;;;;;;29.65;28.03;101787.75;5135501;27;20043;-61
2022/05/15 10:00:34;;;;;;;8.52;3.35;;;;;;;29.77;27.92;101784.38;5135373;27;20039;-60
2022/05/15 10:03:21;;;;;;;5.78;2.78;;;;;;;29.85;27.68;101784.16;5136247;27;20504;-61
2022/05/15 10:06:01;;;;;;;7.88;2.80;;;;;;;29.94;27.44;101783.75;5135378;27;20505;-60
2022/05/15 10:08:29;;;;;;;7.22;3.05;;;;;;;30.02;27.42;101780.78;5136130;27;20388;-60
2022/05/15 10:11:06;;;;;;;9.80;3.70;;;;;;;30.07;27.02;101776.50;5135938;27;20499;-60
2022/05/15 10:13:44;;;;;;;8.77;3.90;;;;;;;30.11;27.00;101773.09;5136248;27;20065;-63
2022/05/15 10:16:22;;;;;;;7.63;3.60;;;;;;;30.10;26.32;101770.53;5135963;27;20485;-60
2022/05/15 10:19:01;;;;;;;10.20;3.00;;;;;;;30.10;26.48;101767.78;5134444;27;20031;-60
2022/05/15 10:21:43;;;;;;;9.45;2.90;;;;;;;30.13;26.20;101765.41;5135947;27;20401;-62
2022/05/15 10:24:14;;;;;;;9.60;3.42;;;;;;;30.16;26.22;101766.91;5135715;27;20073;-61
2022/05/15 10:26:56;;;;;;;9.27;3.47;;;;;;;30.16;25.88;101767.75;5134560;27;20429;-62
2022/05/15 10:29:38;;;;;;;10.13;4.00;;;;;;;30.21;26.10;101765.19;5134466;27;20141;-60
2022/05/15 10:32:11;;;;;;;7.45;3.22;;;;;;;30.28;25.97;101777.13;5136035;27;20039;-60
2022/05/15 10:34:40;;;;;;;14.32;3.75;;;;;;;30.36;25.97;101767.72;5135115;27;20086;-59
2022/05/15 10:37:14;;;;;;;10.60;3.90;;;;;;;30.45;25.86;101763.63;5135498;27;20096;-60
2022/05/15 10:40:12;;;;;;;11.00;4.53;;;;;;;30.58;25.69;101771.09;5135426;27;20477;-61
2022/05/15 10:42:49;;;;;;;13.40;4.07;;;;;;;30.69;25.74;101767.66;5135007;27;20489;-61
2022/05/15 10:45:38;;;;;;;10.02;3.55;;;;;;;30.81;25.69;101757.56;5135294;27;20045;-60
2022/05/15 10:48:16;;;;;;;8.45;3.28;;;;;;;30.89;25.25;101760.09;5135464;27;20100;-60
2022/05/15 10:50:52;;;;;;;7.13;2.60;;;;;;;30.93;24.94;101755.81;5132139;27;20046;-60
2022/05/15 10:57:21;;;;;;;9.35;2.70;;;;;;;31.13;24.48;101741.81;5135031;27;20031;-60
2022/05/15 10:59:58;;;;;;;10.40;3.50;;;;;;;31.18;24.28;101744.81;5133156;27;20500;-60
2022/05/15 11:02:45;;;;;;;7.40;2.80;;;;;;;31.20;24.24;101736.25;5134856;27;20047;-61
2022/05/15 11:05:20;;;;;;;6.47;3.03;;;;;;;31.29;24.19;101733.03;5134998;27;20115;-61
2022/05/15 11:08:17;;;;;;;12.30;2.83;;;;;;;31.42;24.22;101734.84;5134485;27;20039;-60
2022/05/15 11:10:58;;;;;;;9.93;3.03;;;;;;;31.58;23.83;101733.44;5125090;27;20451;-61
2022/05/15 11:13:58;;;;;;;7.90;2.47;;;;;;;31.64;23.54;101723.34;5130110;27;20047;-60
2022/05/15 11:16:46;;;;;;;5.88;2.38;;;;;;;31.72;23.46;101731.41;5133948;27;20043;-60
2022/05/15 11:19:46;;;;;;;12.05;2.92;;;;;;;31.75;23.43;101717.94;5133337;27;20047;-61
2022/05/15 11:22:21;;;;;;;6.40;2.33;;;;;;;31.85;23.21;101715.47;5078329;27;20125;-60
2022/05/15 11:25:00;;;;;;;8.30;3.35;;;;;;;31.88;22.88;101715.03;5121844;27;20043;-61
2022/05/15 11:27:42;;;;;;;7.45;2.80;;;;;;;31.94;22.65;101713.25;5114249;28;20047;-60
2022/05/15 11:30:28;;;;;;;8.20;2.70;;;;;;;32.03;22.64;101714.69;5119671;27;20042;-60
2022/05/15 11:32:55;;;;;;;10.65;2.90;;;;;;;32.10;22.70;101701.56;5132959;27;20054;-61
2022/05/15 11:35:25;;;;;;;9.57;2.85;;;;;;;32.18;22.37;101698.47;5133949;27;20185;-60
2022/05/15 11:37:57;;;;;;;6.80;2.53;;;;;;;32.23;22.42;101698.63;5134400;27;20043;-60
2022/05/15 11:40:47;;;;;;;9.00;2.95;;;;;;;32.31;22.32;101691.09;5134554;27;20527;-61
2022/05/15 11:43:30;;;;;;;19.13;3.30;;;;;;;32.35;22.13;101687.63;5134555;27;20074;-61
2022/05/15 11:46:05;;;;;;;8.85;3.22;;;;;;;32.39;22.10;101690.78;5116643;27;20047;-62
2022/05/15 11:48:32;;;;;;;6.93;2.60;;;;;;;32.46;22.09;101688.78;5134376;27;20043;-60
2022/05/15 11:51:01;;;;;;;5.57;2.22;;;;;;;32.52;21.58;101685.06;5134072;27;20047;-61
2022/05/15 11:53:48;;;;;;;6.57;2.90;;;;;;;32.62;21.45;101690.06;5134198;27;20043;-60
2022/05/15 11:56:24;;;;;;;8.57;2.40;;;;;;;32.71;21.66;101678.41;5131463;27;20055;-61
2022/05/15 11:58:57;;;;;;;10.13;2.53;;;;;;;32.80;21.54;101674.22;5134534;27;20097;-61